createdAt,value
2023-03-23T15:58:38.532Z,17.30
2023-03-23T16:04:33.971Z,17.20
2023-03-23T16:09:46.767Z,17.20
2023-03-23T16:15:03.311Z,17.10
2023-03-23T16:20:16.016Z,17.10
2023-03-23T16:25:44.335Z,17.00
2023-03-23T16:31:00.748Z,16.90
2023-03-23T16:36:10.080Z,16.90
2023-03-23T16:41:21.900Z,16.90
2023-03-23T16:46:46.627Z,16.80
2023-03-23T16:51:57.624Z,16.70
2023-03-23T16:58:15.371Z,16.60
2023-03-23T17:03:27.862Z,16.60
2023-03-23T17:08:42.309Z,16.30
2023-03-23T17:13:44.985Z,16.10
2023-03-23T17:18:49.201Z,16.10
2023-03-23T17:23:54.798Z,16.00
2023-03-23T17:28:57.560Z,15.90
2023-03-23T17:34:01.626Z,15.80
2023-03-23T17:39:04.592Z,15.70
2023-03-23T17:44:09.047Z,15.60
2023-03-23T17:49:13.053Z,15.50
2023-03-23T17:54:15.858Z,15.20
2023-03-23T17:59:18.641Z,15.10
2023-03-23T18:04:23.302Z,15.00
2023-03-23T18:09:27.172Z,14.80
2023-03-23T18:14:29.951Z,14.60
2023-03-23T18:19:34.223Z,14.40
2023-03-23T18:24:36.946Z,14.20
2023-03-23T18:29:39.738Z,14.10
2023-03-23T18:34:44.181Z,13.80
2023-03-23T18:39:46.835Z,13.60
2023-03-23T18:44:49.563Z,13.50
2023-03-23T18:49:55.225Z,13.40
2023-03-23T18:54:58.402Z,13.40
2023-03-23T19:00:01.687Z,13.50
2023-03-23T19:05:07.044Z,13.50
2023-03-23T19:10:10.562Z,13.40
2023-03-23T19:15:16.149Z,13.40
2023-03-23T19:20:45.554Z,13.20
2023-03-23T19:25:47.289Z,13.10
2023-03-23T19:30:54.343Z,13.30
2023-03-23T19:36:09.145Z,13.00
2023-03-23T19:41:15.541Z,12.50
2023-03-23T19:46:18.969Z,12.30
2023-03-23T19:51:23.972Z,12.40
2023-03-23T19:56:28.933Z,12.60
2023-03-23T20:01:32.414Z,12.90
2023-03-23T20:06:37.611Z,13.00
2023-03-23T20:11:40.763Z,13.10
2023-03-23T20:16:43.740Z,13.10
2023-03-23T20:21:47.816Z,13.10
2023-03-23T20:26:50.554Z,13.20
2023-03-23T20:31:53.632Z,13.30
2023-03-23T20:37:00.815Z,13.50
2023-03-23T20:42:06.775Z,13.50
2023-03-23T21:06:53.282Z,13.50
2023-03-23T21:26:07.597Z,13.50
2023-03-23T21:51:31.726Z,13.70
2023-03-23T22:15:29.491Z,13.90
2023-03-23T22:20:32.508Z,14.00
2023-03-23T22:25:37.124Z,13.90
2023-03-23T22:30:39.911Z,13.80
2023-03-23T22:35:42.573Z,13.90
2023-03-23T22:40:46.924Z,14.00
2023-03-23T22:45:50.903Z,14.00
2023-03-23T22:50:54.057Z,13.90
2023-03-23T22:55:59.048Z,13.90
2023-03-23T23:01:04.240Z,13.90
2023-03-23T23:06:08.093Z,13.80
2023-03-23T23:11:13.993Z,13.80
2023-03-23T23:16:18.261Z,13.80
2023-03-23T23:21:25.225Z,13.90
2023-03-23T23:26:29.267Z,14.00
2023-03-23T23:31:33.725Z,14.00
2023-03-23T23:36:37.459Z,13.80
2023-03-23T23:41:41.432Z,13.60
2023-03-23T23:46:44.110Z,13.60
2023-03-23T23:51:46.744Z,13.50
2023-03-23T23:56:51.446Z,13.50
